createdAt,value
2022-08-18T00:01:44.134Z,69.35
2022-08-18T00:04:25.186Z,69.47
2022-08-18T00:06:58.662Z,69.43
2022-08-18T00:09:30.136Z,69.56
2022-08-18T00:11:58.911Z,69.67
2022-08-18T00:14:25.577Z,69.91
2022-08-18T00:16:54.053Z,69.83
2022-08-18T00:19:27.874Z,70.23
2022-08-18T00:22:14.514Z,70.06
2022-08-18T00:24:47.744Z,70.09
2022-08-18T00:27:29.168Z,69.92
2022-08-18T00:30:01.187Z,70.18
2022-08-18T00:32:34.271Z,69.96
2022-08-18T00:35:09.054Z,70.25
2022-08-18T00:37:36.433Z,70.57
2022-08-18T00:40:04.488Z,70.69
2022-08-18T00:42:31.937Z,71.00
2022-08-18T00:45:04.334Z,70.72
2022-08-18T00:47:37.073Z,70.89
2022-08-18T00:50:15.456Z,70.87
2022-08-18T00:52:47.558Z,70.47
2022-08-18T00:55:17.963Z,70.98
2022-08-18T00:57:44.595Z,70.81
2022-08-18T01:00:13.333Z,71.21
2022-08-18T01:02:44.627Z,71.04
2022-08-18T01:05:19.090Z,70.98
2022-08-18T01:07:48.690Z,70.76
2022-08-18T01:10:20.209Z,71.31
2022-08-18T01:12:50.246Z,71.10
2022-08-18T01:15:28.731Z,71.33
2022-08-18T01:18:17.430Z,71.11
2022-08-18T01:21:24.142Z,71.09
2022-08-18T01:23:53.596Z,70.96
2022-08-18T01:26:22.761Z,71.13
2022-08-18T01:28:49.727Z,71.35
2022-08-18T01:31:38.167Z,71.57
2022-08-18T01:34:07.485Z,71.54
2022-08-18T01:36:37.984Z,71.83
2022-08-18T01:39:07.267Z,71.36
2022-08-18T01:41:34.106Z,71.35
2022-08-18T01:44:02.328Z,71.44
2022-08-18T01:46:33.753Z,71.64
2022-08-18T01:49:01.989Z,71.89
2022-08-18T01:51:38.131Z,71.93
2022-08-18T01:54:08.417Z,71.98
2022-08-18T01:56:36.781Z,71.71
2022-08-18T01:59:04.310Z,71.45
2022-08-18T02:01:35.311Z,71.34
2022-08-18T02:04:31.598Z,71.30
2022-08-18T02:06:53.997Z,71.57
2022-08-18T02:09:24.221Z,71.49
2022-08-18T02:11:53.022Z,71.41
2022-08-18T02:14:27.105Z,71.76
2022-08-18T02:17:01.400Z,71.90
2022-08-18T02:19:32.294Z,71.89
2022-08-18T02:21:58.816Z,72.16
2022-08-18T02:24:25.342Z,71.65
2022-08-18T02:26:51.871Z,71.88
2022-08-18T02:29:18.433Z,71.96
2022-08-18T02:31:44.969Z,71.60
2022-08-18T02:34:11.580Z,72.00
2022-08-18T02:36:38.117Z,72.09
2022-08-18T02:39:04.677Z,72.12
2022-08-18T02:41:31.453Z,72.60
2022-08-18T02:43:58.815Z,72.52
2022-08-18T02:46:29.915Z,72.15
2022-08-18T02:48:58.814Z,72.49
2022-08-18T02:51:25.896Z,72.48
2022-08-18T02:53:53.887Z,72.28
2022-08-18T02:56:40.551Z,72.37
2022-08-18T02:59:11.786Z,72.61
2022-08-18T03:01:42.423Z,73.31
2022-08-18T03:04:11.111Z,73.49
2022-08-18T03:06:39.347Z,73.32
2022-08-18T03:09:07.960Z,73.20
2022-08-18T03:11:35.421Z,73.25
2022-08-18T03:14:02.369Z,73.24
2022-08-18T03:16:32.942Z,73.17
2022-08-18T03:19:01.844Z,72.97
2022-08-18T03:21:31.117Z,72.79
2022-08-18T03:24:00.907Z,72.82
2022-08-18T03:26:30.226Z,73.01
2022-08-18T03:29:00.057Z,73.13
2022-08-18T03:31:29.941Z,73.24
2022-08-18T03:33:59.564Z,73.56
2022-08-18T03:36:30.701Z,73.68
2022-08-18T03:38:58.105Z,73.84
2022-08-18T03:41:56.811Z,73.64
2022-08-18T03:44:15.497Z,73.31
2022-08-18T03:46:44.795Z,73.53
2022-08-18T03:49:12.582Z,73.38
2022-08-18T03:51:43.641Z,73.84
2022-08-18T03:54:13.273Z,73.93
2022-08-18T03:56:41.361Z,73.94
2022-08-18T03:59:23.062Z,74.00
2022-08-18T04:01:51.440Z,74.08
2022-08-18T04:04:21.730Z,74.29
2022-08-18T04:06:53.941Z,74.34
2022-08-18T04:09:21.818Z,74.37
2022-08-18T04:11:48.993Z,74.42
2022-08-18T04:14:19.325Z,74.57
2022-08-18T04:16:46.322Z,74.90
2022-08-18T04:19:13.832Z,74.88
2022-08-18T04:21:42.405Z,74.94
2022-08-18T04:24:11.661Z,74.76
2022-08-18T04:26:45.054Z,74.69
2022-08-18T04:29:13.974Z,74.65
2022-08-18T04:31:41.178Z,74.57
2022-08-18T04:34:07.783Z,74.49
2022-08-18T04:36:36.225Z,74.39
2022-08-18T04:39:05.677Z,74.32
2022-08-18T04:41:32.310Z,74.29
2022-08-18T04:44:01.564Z,74.21
2022-08-18T04:46:29.041Z,74.46
2022-08-18T04:48:59.238Z,74.51
2022-08-18T04:52:22.498Z,74.71
2022-08-18T04:54:16.215Z,74.50
2022-08-18T04:56:43.609Z,74.47
2022-08-18T04:59:14.355Z,74.51
2022-08-18T05:01:47.810Z,74.33
2022-08-18T05:04:16.375Z,74.37
2022-08-18T05:06:44.631Z,74.64
2022-08-18T05:09:16.530Z,74.43
2022-08-18T05:11:44.653Z,74.25
2022-08-18T05:14:12.142Z,74.46
2022-08-18T05:16:48.205Z,74.45
2022-08-18T05:19:19.898Z,74.39
2022-08-18T05:21:52.332Z,74.26
2022-08-18T05:24:21.524Z,74.43
2022-08-18T05:26:49.231Z,74.32
2022-08-18T05:29:18.991Z,74.56
2022-08-18T05:31:47.264Z,74.54
2022-08-18T05:34:14.370Z,74.49
2022-08-18T05:36:46.939Z,74.63
2022-08-18T05:39:19.519Z,74.46
2022-08-18T05:41:56.903Z,74.49
2022-08-18T05:44:29.739Z,74.28
2022-08-18T05:47:11.080Z,74.26
2022-08-18T05:49:38.682Z,74.19
2022-08-18T05:52:15.223Z,74.16
2022-08-18T05:55:07.194Z,73.98
2022-08-18T05:57:45.311Z,74.00
2022-08-18T06:00:15.506Z,74.06
2022-08-18T06:03:01.397Z,73.90
2022-08-18T06:05:53.525Z,73.99
2022-08-18T06:08:24.934Z,73.67
2022-08-18T06:10:51.567Z,73.95
2022-08-18T06:13:20.246Z,73.70
2022-08-18T06:16:09.434Z,73.73
2022-08-18T06:18:45.006Z,73.61
2022-08-18T06:21:38.756Z,73.13
2022-08-18T06:24:05.765Z,72.79
2022-08-18T06:27:20.435Z,72.66
2022-08-18T06:30:04.930Z,72.74
2022-08-18T06:33:01.888Z,72.61
2022-08-18T06:35:56.771Z,72.15
2022-08-18T06:38:47.402Z,71.78
2022-08-18T06:41:40.486Z,71.52
2022-08-18T06:44:21.103Z,71.34
2022-08-18T06:47:26.292Z,71.27
2022-08-18T06:50:18.187Z,71.11
2022-08-18T06:52:54.690Z,70.63
2022-08-18T06:55:36.299Z,70.87
2022-08-18T06:58:07.201Z,70.78
2022-08-18T07:00:36.640Z,70.34
2022-08-18T07:03:13.355Z,70.19
2022-08-18T07:06:02.253Z,70.23
2022-08-18T07:08:38.719Z,69.95
2022-08-18T07:11:17.337Z,70.13
2022-08-18T07:13:46.877Z,69.76
2022-08-18T07:16:54.546Z,69.33
2022-08-18T07:19:23.035Z,69.40
2022-08-18T07:22:04.174Z,69.17
2022-08-18T07:24:34.708Z,68.93
2022-08-18T07:27:07.485Z,68.61
2022-08-18T07:29:59.121Z,68.25
2022-08-18T07:32:37.758Z,68.13
2022-08-18T07:35:08.772Z,67.77
2022-08-18T07:37:42.963Z,67.19
2022-08-18T07:40:35.200Z,67.17
2022-08-18T07:43:08.601Z,66.95
2022-08-18T07:45:44.471Z,66.89
2022-08-18T07:48:38.103Z,66.46
2022-08-18T07:51:18.875Z,66.60
2022-08-18T07:54:13.255Z,66.10
2022-08-18T07:57:11.006Z,66.05
2022-08-18T07:59:47.309Z,65.57
2022-08-18T08:02:26.891Z,65.71
2022-08-18T08:05:20.305Z,65.79
2022-08-18T08:07:56.734Z,65.13
2022-08-18T08:10:38.949Z,64.29
2022-08-18T08:13:51.790Z,63.43
2022-08-18T08:16:40.683Z,62.96
2022-08-18T08:19:11.261Z,62.34
2022-08-18T08:21:53.029Z,62.21
2022-08-18T08:24:40.535Z,61.73
2022-08-18T08:27:21.418Z,61.00
2022-08-18T08:30:03.095Z,60.53
2022-08-18T08:32:37.138Z,60.28
2022-08-18T08:35:47.411Z,59.68
2022-08-18T08:38:42.669Z,59.66
2022-08-18T08:41:22.437Z,59.72
2022-08-18T08:44:15.650Z,59.59
2022-08-18T08:46:52.754Z,59.14
2022-08-18T08:49:30.583Z,59.00
2022-08-18T08:52:03.487Z,58.59
2022-08-18T08:54:35.486Z,58.19
2022-08-18T08:57:04.294Z,57.95
2022-08-18T08:59:30.962Z,58.03
2022-08-18T09:02:26.994Z,57.80
2022-08-18T09:05:13.430Z,57.77
2022-08-18T09:08:15.162Z,57.06
2022-08-18T09:11:06.302Z,57.19
2022-08-18T09:13:42.068Z,56.72
2022-08-18T09:16:46.462Z,56.07
2022-08-18T09:19:59.296Z,55.68
2022-08-18T09:22:38.930Z,55.78
2022-08-18T09:25:39.351Z,55.33
2022-08-18T09:28:13.509Z,55.19
2022-08-18T09:30:47.668Z,54.52
2022-08-18T09:33:48.439Z,54.44
2022-08-18T09:36:36.521Z,54.20
2022-08-18T09:39:35.304Z,54.64
2022-08-18T09:42:11.712Z,53.86
2022-08-18T09:44:41.071Z,53.62
2022-08-18T09:47:10.219Z,52.93
2022-08-18T09:49:51.242Z,52.60
2022-08-18T09:52:20.856Z,52.46
2022-08-18T09:55:18.054Z,52.33
2022-08-18T09:57:46.687Z,52.13
2022-08-18T10:00:30.483Z,51.66
2022-08-18T10:03:05.493Z,50.75
2022-08-18T10:05:34.854Z,49.81
2022-08-18T10:08:14.670Z,49.24
2022-08-18T10:11:00.755Z,48.89
2022-08-18T10:13:50.949Z,48.90
2022-08-18T10:16:38.253Z,48.67
2022-08-18T10:19:33.965Z,48.56
2022-08-18T10:22:09.386Z,48.32
2022-08-18T10:24:53.882Z,48.92
2022-08-18T10:27:42.853Z,49.30
2022-08-18T10:30:57.515Z,49.21
2022-08-18T10:33:58.341Z,49.41
2022-08-18T10:36:40.115Z,49.00
2022-08-18T10:39:13.237Z,48.89
2022-08-18T10:41:54.283Z,49.16
2022-08-18T10:44:29.133Z,48.81
2022-08-18T10:46:58.891Z,49.10
2022-08-18T10:49:28.875Z,49.24
2022-08-18T10:52:12.627Z,49.24
2022-08-18T10:55:03.566Z,49.10
2022-08-18T10:57:51.400Z,48.83
2022-08-18T11:00:20.378Z,48.70
2022-08-18T11:03:30.117Z,48.83
2022-08-18T11:05:46.652Z,48.76
2022-08-18T11:08:17.663Z,48.57
2022-08-18T11:11:06.335Z,48.52
2022-08-18T11:14:15.579Z,48.65
2022-08-18T11:16:51.992Z,48.46
2022-08-18T11:19:22.782Z,48.38
2022-08-18T11:21:52.022Z,48.04
2022-08-18T11:24:27.632Z,48.26
2022-08-18T11:27:02.994Z,48.16
2022-08-18T11:29:37.698Z,48.32
2022-08-18T11:32:11.151Z,47.77
2022-08-18T11:34:53.073Z,47.98
2022-08-18T11:37:48.701Z,47.89
2022-08-18T11:40:51.997Z,47.99
2022-08-18T11:43:21.589Z,47.62
2022-08-18T11:46:29.922Z,47.30
2022-08-18T11:48:58.286Z,47.76
2022-08-18T11:51:32.485Z,47.50
2022-08-18T11:54:00.860Z,47.67
2022-08-18T11:56:35.718Z,47.33
2022-08-18T11:59:05.802Z,47.24
2022-08-18T12:01:41.875Z,47.73
2022-08-18T12:04:37.581Z,47.73
2022-08-18T12:07:10.516Z,47.69
2022-08-18T12:10:18.433Z,47.16
2022-08-18T12:12:35.864Z,47.03
2022-08-18T12:15:22.712Z,47.07
2022-08-18T12:20:39.345Z,46.98
2022-08-18T12:23:05.917Z,46.54
2022-08-18T12:25:32.460Z,46.87
2022-08-18T12:27:58.974Z,46.86
2022-08-18T12:30:26.198Z,47.00
2022-08-18T12:32:55.836Z,47.11
2022-08-18T12:35:23.134Z,47.38
2022-08-18T12:38:13.776Z,47.08
2022-08-18T12:40:38.169Z,46.99
2022-08-18T12:43:05.909Z,47.50
2022-08-18T12:45:32.838Z,47.84
2022-08-18T12:48:04.000Z,47.84
2022-08-18T12:50:35.009Z,48.15
2022-08-18T12:53:05.050Z,48.12
2022-08-18T12:55:37.587Z,48.03
2022-08-18T12:58:10.200Z,48.14
2022-08-18T13:00:37.478Z,48.10
2022-08-18T13:03:04.067Z,47.81
2022-08-18T13:05:30.709Z,47.73
2022-08-18T13:08:04.305Z,47.71
2022-08-18T13:10:46.013Z,47.83
2022-08-18T13:13:18.882Z,48.29
2022-08-18T13:15:57.792Z,47.90
2022-08-18T13:18:29.000Z,47.94
2022-08-18T13:20:57.707Z,48.25
2022-08-18T13:23:27.266Z,47.95
2022-08-18T13:25:59.342Z,48.35
2022-08-18T13:28:35.640Z,48.28
2022-08-18T13:31:06.183Z,48.24
2022-08-18T13:33:34.810Z,48.40
2022-08-18T13:36:22.562Z,48.68
2022-08-18T13:38:52.332Z,48.86
2022-08-18T13:43:51.397Z,48.92
2022-08-18T13:46:24.389Z,49.14
2022-08-18T13:49:01.330Z,49.30
2022-08-18T13:51:28.638Z,49.57
2022-08-18T13:54:17.887Z,49.79
2022-08-18T13:56:42.715Z,50.07
2022-08-18T13:59:18.561Z,50.24
2022-08-18T14:01:51.840Z,50.26
2022-08-18T14:04:21.095Z,50.41
2022-08-18T14:06:57.903Z,50.24
2022-08-18T14:09:36.603Z,50.35
2022-08-18T14:12:15.510Z,50.63
2022-08-18T14:14:49.339Z,50.82
2022-08-18T14:17:18.837Z,51.22
2022-08-18T14:20:04.788Z,51.43
2022-08-18T14:22:55.907Z,51.71
2022-08-18T14:25:41.252Z,52.08
2022-08-18T14:28:09.302Z,52.60
2022-08-18T14:30:39.385Z,52.74
2022-08-18T14:33:07.991Z,53.18
2022-08-18T14:36:05.779Z,53.24
2022-08-18T14:38:24.964Z,53.36
2022-08-18T14:40:51.902Z,53.39
2022-08-18T14:43:24.982Z,53.65
2022-08-18T14:45:58.076Z,54.10
2022-08-18T14:48:27.377Z,54.25
2022-08-18T14:50:56.374Z,54.39
2022-08-18T14:53:29.814Z,54.76
2022-08-18T14:55:59.265Z,54.50
2022-08-18T14:58:28.809Z,55.03
2022-08-18T15:00:58.041Z,55.21
2022-08-18T15:03:28.267Z,55.16
2022-08-18T15:06:00.374Z,55.23
2022-08-18T15:08:27.066Z,55.36
2022-08-18T15:10:58.630Z,55.48
2022-08-18T15:13:27.671Z,55.47
2022-08-18T15:15:55.866Z,55.77
2022-08-18T15:18:28.727Z,56.47
2022-08-18T15:21:34.744Z,56.53
2022-08-18T15:24:20.044Z,56.52
2022-08-18T15:26:51.855Z,56.88
2022-08-18T15:29:27.814Z,56.89
2022-08-18T15:32:01.978Z,57.08
2022-08-18T15:34:31.645Z,57.57
2022-08-18T15:37:09.758Z,57.58
2022-08-18T15:39:36.964Z,57.63
2022-08-18T15:42:10.148Z,57.85
2022-08-18T15:44:37.185Z,57.90
2022-08-18T15:47:05.977Z,58.30
2022-08-18T15:49:36.116Z,57.92
2022-08-18T15:52:03.227Z,58.43
2022-08-18T15:54:29.756Z,58.40
2022-08-18T15:56:58.138Z,58.25
2022-08-18T15:59:33.035Z,58.41
2022-08-18T16:02:06.665Z,58.96
2022-08-18T16:04:41.008Z,58.64
2022-08-18T16:07:07.757Z,59.13
2022-08-18T16:09:38.930Z,59.20
2022-08-18T16:12:09.055Z,59.26
2022-08-18T16:14:41.452Z,59.57
2022-08-18T16:17:09.373Z,59.53
2022-08-18T16:19:44.928Z,59.77
2022-08-18T16:22:11.781Z,60.15
2022-08-18T16:24:38.729Z,60.21
2022-08-18T16:27:06.657Z,60.47
2022-08-18T16:29:33.542Z,60.91
2022-08-18T16:32:00.108Z,61.00
2022-08-18T16:34:30.993Z,61.05
2022-08-18T16:36:57.802Z,61.43
2022-08-18T16:39:24.293Z,61.19
2022-08-18T16:41:51.415Z,61.49
2022-08-18T16:44:18.338Z,61.65
2022-08-18T16:46:45.006Z,61.91
2022-08-18T16:49:11.751Z,61.96
2022-08-18T16:51:38.288Z,61.82
2022-08-18T16:54:05.468Z,62.14
2022-08-18T16:56:35.719Z,62.02
2022-08-18T16:59:21.249Z,62.28
2022-08-18T17:02:06.802Z,62.30
2022-08-18T17:04:33.993Z,62.34
2022-08-18T17:07:04.911Z,62.67
2022-08-18T17:09:33.220Z,62.74
2022-08-18T17:12:00.773Z,62.95
2022-08-18T17:14:30.032Z,62.93
2022-08-18T17:17:00.847Z,63.42
2022-08-18T17:19:33.711Z,63.39
2022-08-18T17:22:02.451Z,63.55
2022-08-18T17:24:31.885Z,63.69
2022-08-18T17:27:37.309Z,63.87
2022-08-18T17:30:17.493Z,63.84
2022-08-18T17:32:55.670Z,63.76
2022-08-18T17:35:28.948Z,64.17
2022-08-18T17:38:08.055Z,64.24
2022-08-18T17:40:48.003Z,64.44
2022-08-18T17:43:25.847Z,64.62
2022-08-18T17:46:04.818Z,64.59
2022-08-18T17:48:55.564Z,65.10
2022-08-18T17:51:43.553Z,64.94
2022-08-18T17:54:46.071Z,65.05
2022-08-18T17:57:36.059Z,65.28
2022-08-18T18:00:12.092Z,65.21
2022-08-18T18:02:41.235Z,65.18
2022-08-18T18:05:11.345Z,65.61
2022-08-18T18:07:59.812Z,65.87
2022-08-18T18:13:32.624Z,66.20
2022-08-18T18:16:21.749Z,66.29
2022-08-18T18:19:01.184Z,66.49
2022-08-18T18:21:55.341Z,66.65
2022-08-18T18:24:17.069Z,66.72
2022-08-18T18:26:52.256Z,66.78
2022-08-18T18:29:33.335Z,66.90
2022-08-18T18:32:27.388Z,67.34
2022-08-18T18:35:07.961Z,67.34
2022-08-18T18:37:47.307Z,67.46
2022-08-18T18:40:29.577Z,67.60
2022-08-18T18:42:58.169Z,67.87
2022-08-18T18:45:29.098Z,67.80
2022-08-18T18:47:59.878Z,67.92
2022-08-18T18:50:26.638Z,68.23
2022-08-18T18:53:13.303Z,68.49
2022-08-18T18:56:14.364Z,68.35
2022-08-18T18:58:58.461Z,68.58
2022-08-18T19:01:38.521Z,68.72
2022-08-18T19:04:19.782Z,68.91
2022-08-18T19:06:53.091Z,68.86
2022-08-18T19:09:39.821Z,69.27
2022-08-18T19:12:20.686Z,69.07
2022-08-18T19:15:03.457Z,68.95
2022-08-18T19:17:35.709Z,68.88
2022-08-18T19:20:13.809Z,68.84
2022-08-18T19:23:01.148Z,69.24
2022-08-18T19:25:30.115Z,69.33
2022-08-18T19:28:02.841Z,69.05
2022-08-18T19:30:33.066Z,69.12
2022-08-18T19:33:04.542Z,69.22
2022-08-18T19:35:50.200Z,69.48
2022-08-18T19:38:56.117Z,69.48
2022-08-18T19:41:33.977Z,69.32
2022-08-18T19:44:24.717Z,69.36
2022-08-18T19:46:54.467Z,69.50
2022-08-18T19:49:49.306Z,69.61
2022-08-18T19:52:45.509Z,69.80
2022-08-18T19:55:28.193Z,69.46
2022-08-18T19:58:14.497Z,69.94
2022-08-18T20:00:56.697Z,69.83
2022-08-18T20:03:31.972Z,70.01
2022-08-18T20:06:17.811Z,70.38
2022-08-18T20:08:58.208Z,70.39
2022-08-18T20:12:01.785Z,70.37
2022-08-18T20:14:35.717Z,70.27
2022-08-18T20:17:25.598Z,70.65
2022-08-18T20:19:55.888Z,70.51
2022-08-18T20:22:24.820Z,70.65
2022-08-18T20:25:04.578Z,70.78
2022-08-18T20:27:40.091Z,71.05
2022-08-18T20:30:31.881Z,71.00
2022-08-18T20:33:25.775Z,71.27
2022-08-18T20:35:58.677Z,71.11
2022-08-18T20:38:40.857Z,71.08
2022-08-18T20:41:43.987Z,71.08
2022-08-18T20:44:48.493Z,71.10
2022-08-18T20:47:53.146Z,71.03
2022-08-18T20:50:47.450Z,71.26
2022-08-18T20:53:32.940Z,71.14
2022-08-18T20:56:32.467Z,71.45
2022-08-18T20:59:20.229Z,70.96
2022-08-18T21:02:05.957Z,71.21
2022-08-18T21:04:48.002Z,71.25
2022-08-18T21:07:36.214Z,71.27
2022-08-18T21:10:23.399Z,71.32
2022-08-18T21:12:59.547Z,71.82
2022-08-18T21:15:36.194Z,71.45
2022-08-18T21:18:04.932Z,71.78
2022-08-18T21:20:33.114Z,71.92
2022-08-18T21:23:09.624Z,71.72
2022-08-18T21:25:40.336Z,71.81
2022-08-18T21:28:07.106Z,71.92
2022-08-18T21:30:34.348Z,71.60
2022-08-18T21:33:02.089Z,71.71
2022-08-18T21:35:34.500Z,72.03
2022-08-18T21:38:10.870Z,72.21
2022-08-18T21:40:41.185Z,72.08
2022-08-18T21:43:12.733Z,72.21
2022-08-18T21:45:59.037Z,72.04
2022-08-18T21:48:27.916Z,72.58
2022-08-18T21:50:58.850Z,72.57
2022-08-18T21:53:38.333Z,72.49
2022-08-18T21:56:05.005Z,72.64
2022-08-18T21:58:34.533Z,72.88
2022-08-18T22:01:10.338Z,72.89
2022-08-18T22:03:53.409Z,72.96
2022-08-18T22:06:28.500Z,72.98
2022-08-18T22:09:26.006Z,72.87
2022-08-18T22:12:36.016Z,72.74
2022-08-18T22:15:07.593Z,73.15
2022-08-18T22:18:00.359Z,72.94
2022-08-18T22:20:49.843Z,73.01
2022-08-18T22:23:34.957Z,73.30
2022-08-18T22:26:35.102Z,73.27
2022-08-18T22:29:27.975Z,73.09
2022-08-18T22:31:55.506Z,73.38
2022-08-18T22:34:27.785Z,73.12
2022-08-18T22:36:59.349Z,73.13
2022-08-18T22:39:51.067Z,73.54
2022-08-18T22:42:20.726Z,73.33
2022-08-18T22:44:47.577Z,73.57
2022-08-18T22:47:14.295Z,73.59
2022-08-18T22:49:41.364Z,74.01
2022-08-18T22:52:19.329Z,73.78
2022-08-18T22:54:46.477Z,74.03
2022-08-18T22:57:17.566Z,73.78
2022-08-18T22:59:48.594Z,73.75
2022-08-18T23:02:22.184Z,73.62
2022-08-18T23:04:53.425Z,73.89
2022-08-18T23:07:22.946Z,74.21
2022-08-18T23:09:49.601Z,74.40
2022-08-18T23:12:16.315Z,74.53
2022-08-18T23:14:46.733Z,74.58
2022-08-18T23:17:14.374Z,74.46
2022-08-18T23:19:42.577Z,74.52
2022-08-18T23:22:10.755Z,74.77
2022-08-18T23:24:38.468Z,74.62
2022-08-18T23:27:06.265Z,74.74
2022-08-18T23:29:36.755Z,74.76
2022-08-18T23:32:07.869Z,75.08
2022-08-18T23:34:35.592Z,75.10
2022-08-18T23:37:03.620Z,75.39
2022-08-18T23:39:32.147Z,75.39
2022-08-18T23:42:00.544Z,75.23
2022-08-18T23:44:28.206Z,75.41
2022-08-18T23:46:57.965Z,75.30
2022-08-18T23:49:26.304Z,75.45
2022-08-18T23:51:56.006Z,75.22
2022-08-18T23:54:27.144Z,75.26
2022-08-18T23:56:54.046Z,75.56
2022-08-18T23:59:22.677Z,75.54
